Terminal Aerodrome Forecast
Issued by NWS

Home | Current Version | Previous Version | Text Only | Print | Product List | Glossary On
Versions: 1 2 3 4 5 6 7 8 9 10 11 12
000
FTUS46 KMTR 171727
TAFSTS
TAF
KSTS 171727Z 1718/1818 VRB03KT 5SM FU SCT250
     FM172100 19007KT P6SM SCT250
     FM180400 VRB03KT P6SM BKN200
     FM181300 VRB03KT 2SM BR SCT200
     FM181600 VRB03KT P6SM FEW200=

USA.gov is the U.S. government's official web portal to all federal, state and local government web resources and services.